Decoded Metar for KSRQ (SARASOTA/BRADENT in FL, USA) (IATA:SRQ) | Meteo·Mobile Aviation Weather
aviador You're here:

KSRQ Decoded Metar

SARASOTA/BRADENT in FL, USA
Report Time2019-01-17 21:53:00
UTC Time2019-01-17 22:56:54
Flight Rules vfr VFR
Wind310° at 08 kt
W.Decomp.*RWY 32: 8.0 kt HW 0.7 kt LCW
RWY 04: 0.7 kt HW 8 kt LCW
W.Rank310° ranks 24
Current wind is below 310° avg. (8.3)
Visibility9999 m
Phenomena:N/A
Clouds:N/A
Expected CloudBase > 3,200 ft AGL from Temp-Dew spread
CeilingNone
Temp19°C (ISA +4)
Dew Point11°C (60% RH)
AAT16.5°C
QNH1021 hPa
Density Alt449 ft
Elevation59 ft
Report Wrong Elevation
Raw Report
METAR KSRQ 172153Z 31008KT 10SM CLR 19/11 A3016 RMK AO2 SLP213 T01890106=

Extra information for KSRQ:More info

Metar Taf Metar & Taf Last 4 Metars F.Rules Stats Wind Profile Meteogram Temp Stats Airport Information Weather charts Add Link Nearby VenuesMetar ALERT Operation Metar Decoded Social comments

AIRNAV info for KSRQ